createdAt,value
2019-01-06T00:03:16.236Z,102911.20
2019-01-06T00:07:00.972Z,102914.68
2019-01-06T00:10:43.774Z,102912.14
2019-01-06T00:14:26.742Z,102916.19
2019-01-06T00:18:26.412Z,102910.58
2019-01-06T00:22:19.972Z,102906.67
2019-01-06T00:26:07.510Z,102900.11
2019-01-06T00:30:04.140Z,102905.89
2019-01-06T00:34:06.793Z,102917.59
2019-01-06T00:37:51.250Z,102922.78
2019-01-06T00:41:34.303Z,102916.13
2019-01-06T00:45:17.737Z,102920.27
2019-01-06T00:49:02.182Z,102915.51
2019-01-06T00:52:44.971Z,102916.53
2019-01-06T00:56:47.522Z,102918.08
2019-01-06T01:00:34.018Z,102922.50
2019-01-06T01:04:17.056Z,102933.05
2019-01-06T01:08:04.804Z,102931.83
2019-01-06T01:12:01.061Z,102938.48
2019-01-06T01:15:46.769Z,102936.83
2019-01-06T01:19:36.160Z,102929.86
2019-01-06T01:23:11.208Z,102933.58
2019-01-06T01:27:04.858Z,102936.17
2019-01-06T01:30:52.090Z,102939.94
2019-01-06T01:34:31.355Z,102939.69
2019-01-06T01:38:24.804Z,102944.61
2019-01-06T01:42:09.255Z,102948.54
2019-01-06T01:45:56.472Z,102949.81
2019-01-06T01:49:52.972Z,102954.88
2019-01-06T01:53:35.110Z,102959.80
2019-01-06T01:57:37.829Z,102958.84
2019-01-06T02:01:16.840Z,102955.93
2019-01-06T02:05:00.082Z,102959.95
2019-01-06T02:08:50.436Z,102954.62
2019-01-06T02:12:40.674Z,102957.33
2019-01-06T02:16:40.048Z,102955.05
2019-01-06T02:20:33.452Z,102952.95
2019-01-06T02:24:32.839Z,102962.90
2019-01-06T02:28:15.692Z,102963.69
2019-01-06T02:32:03.119Z,102960.62
2019-01-06T02:35:50.350Z,102959.63
2019-01-06T02:39:29.848Z,102961.17
2019-01-06T02:43:15.222Z,102964.05
2019-01-06T02:47:09.616Z,102951.27
2019-01-06T02:50:54.072Z,102959.06
2019-01-06T02:54:48.006Z,102958.80
2019-01-06T02:58:35.504Z,102961.69
2019-01-06T03:02:22.689Z,102958.13
2019-01-06T03:06:22.358Z,102956.58
2019-01-06T03:10:09.839Z,102948.37
2019-01-06T03:13:46.166Z,102945.03
2019-01-06T03:17:30.600Z,102943.56
2019-01-06T03:21:15.070Z,102943.83
2019-01-06T03:25:05.530Z,102944.70
2019-01-06T03:28:57.903Z,102949.55
2019-01-06T03:32:40.901Z,102947.27
2019-01-06T03:36:31.399Z,102947.11
2019-01-06T03:40:14.625Z,102940.47
2019-01-06T03:43:57.512Z,102932.87
2019-01-06T03:47:51.293Z,102935.16
2019-01-06T03:51:38.781Z,102933.88
2019-01-06T03:55:41.541Z,102931.00
2019-01-06T03:59:29.041Z,102922.39
2019-01-06T04:03:11.987Z,102916.81
2019-01-06T04:06:54.852Z,102910.03
2019-01-06T04:10:37.678Z,102906.60
2019-01-06T04:14:20.878Z,102904.95
2019-01-06T04:18:11.381Z,102907.14
2019-01-06T04:21:54.437Z,102907.39
2019-01-06T04:25:38.885Z,102903.58
2019-01-06T04:29:28.816Z,102899.61
2019-01-06T04:33:19.361Z,102903.28
2019-01-06T04:37:03.847Z,102901.52
2019-01-06T04:41:04.110Z,102899.76
2019-01-06T04:44:42.284Z,102900.22
2019-01-06T04:48:25.213Z,102898.48
2019-01-06T04:52:12.788Z,102899.22
2019-01-06T04:55:57.310Z,102891.50
2019-01-06T04:59:44.604Z,102894.82
2019-01-06T05:03:44.210Z,102888.64
2019-01-06T05:07:41.104Z,102888.17
2019-01-06T05:11:25.566Z,102885.64
2019-01-06T05:15:10.032Z,102892.31
2019-01-06T05:18:53.155Z,102886.69
2019-01-06T05:22:53.285Z,102886.03
2019-01-06T05:26:42.393Z,102895.98
2019-01-06T05:30:25.728Z,102890.13
2019-01-06T05:34:08.797Z,102888.06
2019-01-06T05:37:52.106Z,102887.86
2019-01-06T05:41:48.476Z,102896.92
2019-01-06T05:45:50.970Z,102897.31
2019-01-06T05:49:34.000Z,102908.66
2019-01-06T05:53:30.718Z,102910.23
2019-01-06T05:57:27.130Z,102906.35
2019-01-06T06:01:17.594Z,102914.86
2019-01-06T06:05:17.275Z,102913.59
2019-01-06T06:09:01.738Z,102923.91
2019-01-06T06:12:50.921Z,102918.47
2019-01-06T06:16:35.381Z,102932.94
2019-01-06T06:20:25.616Z,102934.89
2019-01-06T06:24:08.688Z,102926.39
2019-01-06T06:28:11.068Z,102934.93
2019-01-06T06:31:49.253Z,102929.80
2019-01-06T06:35:32.329Z,102942.30
2019-01-06T06:39:19.593Z,102935.91
2019-01-06T06:43:04.049Z,102938.87
2019-01-06T06:46:46.889Z,102932.51
2019-01-06T06:50:29.702Z,102938.09
2019-01-06T06:54:14.685Z,102944.71
2019-01-06T06:58:40.139Z,102949.16
2019-01-06T07:03:13.260Z,102962.20
2019-01-06T07:06:57.669Z,102967.11
2019-01-06T07:10:42.157Z,102967.81
2019-01-06T07:14:38.485Z,102963.73
2019-01-06T07:18:34.657Z,102972.48
2019-01-06T07:22:15.851Z,102982.04
2019-01-06T07:26:00.669Z,102983.51
2019-01-06T07:29:52.182Z,102990.37
2019-01-06T07:33:39.452Z,102994.80
2019-01-06T07:37:39.271Z,103000.67
2019-01-06T07:41:32.643Z,103010.76
2019-01-06T07:45:15.878Z,103007.89
2019-01-06T07:49:00.653Z,103004.81
2019-01-06T07:52:43.562Z,103011.36
2019-01-06T07:56:24.772Z,103012.34
2019-01-06T08:00:01.937Z,103019.72
2019-01-06T08:03:55.782Z,103018.50
2019-01-06T08:07:49.332Z,103014.02
2019-01-06T08:11:32.439Z,103017.34
2019-01-06T08:15:18.499Z,103026.54
2019-01-06T08:19:08.565Z,103024.38
2019-01-06T08:23:08.146Z,103035.63
2019-01-06T08:27:02.973Z,103034.20
2019-01-06T08:31:02.636Z,103042.27
2019-01-06T08:34:52.183Z,103043.13
2019-01-06T08:38:35.299Z,103048.19
2019-01-06T08:42:28.681Z,103053.56
2019-01-06T08:46:13.077Z,103053.70
2019-01-06T08:49:56.657Z,103061.47
2019-01-06T08:53:50.225Z,103055.99
2019-01-06T08:57:50.331Z,103055.87
2019-01-06T09:01:39.777Z,103052.11
2019-01-06T09:05:31.814Z,103054.89
2019-01-06T09:09:12.489Z,103054.38
2019-01-06T09:13:15.105Z,103054.31
2019-01-06T09:16:58.019Z,103051.45
2019-01-06T09:20:45.742Z,103050.41
2019-01-06T09:24:27.089Z,103050.47
2019-01-06T09:28:29.524Z,103055.31
2019-01-06T09:32:26.279Z,103059.27
2019-01-06T09:36:09.370Z,103062.05
2019-01-06T09:39:56.897Z,103063.13
2019-01-06T09:43:40.183Z,103068.78
2019-01-06T09:50:50.922Z,103075.31
2019-01-06T09:54:38.217Z,103074.98
2019-01-06T09:58:34.861Z,103075.66
2019-01-06T10:02:14.926Z,103070.12
2019-01-06T10:06:03.586Z,103075.95
2019-01-06T10:09:59.941Z,103074.67
2019-01-06T10:13:56.482Z,103078.55
2019-01-06T10:17:46.709Z,103089.06
2019-01-06T10:21:43.090Z,103089.50
2019-01-06T10:25:33.419Z,103088.04
2019-01-06T10:29:17.844Z,103083.97
2019-01-06T10:33:04.999Z,103090.64
2019-01-06T10:36:48.245Z,103092.20
2019-01-06T10:40:25.973Z,103083.69
2019-01-06T10:44:04.744Z,103083.83
2019-01-06T10:48:04.160Z,103089.27
2019-01-06T10:51:47.230Z,103089.16
2019-01-06T10:55:49.693Z,103085.27
2019-01-06T10:59:40.069Z,103091.53
2019-01-06T11:03:22.956Z,103088.38
2019-01-06T11:07:12.678Z,103096.18
2019-01-06T11:10:57.166Z,103090.41
2019-01-06T11:14:53.775Z,103091.92
2019-01-06T11:18:44.238Z,103098.56
2019-01-06T11:22:30.126Z,103092.38
2019-01-06T11:26:13.126Z,103096.70
2019-01-06T11:30:09.603Z,103098.94
2019-01-06T11:34:09.394Z,103100.40
2019-01-06T11:37:59.859Z,103102.40
2019-01-06T11:41:51.549Z,103095.80
2019-01-06T11:45:51.187Z,103090.72
2019-01-06T11:49:34.286Z,103089.64
2019-01-06T11:53:14.474Z,103086.79
2019-01-06T11:56:57.319Z,103093.03
2019-01-06T12:00:40.494Z,103080.44
2019-01-06T12:04:27.886Z,103077.09
2019-01-06T12:08:21.459Z,103074.98
2019-01-06T12:12:07.058Z,103076.50
2019-01-06T12:16:01.389Z,103071.55
2019-01-06T12:19:44.545Z,103068.95
2019-01-06T12:23:27.385Z,103069.04
2019-01-06T12:27:17.910Z,103058.28
2019-01-06T12:31:02.356Z,103059.30
2019-01-06T12:34:47.129Z,103056.09
2019-01-06T12:38:30.385Z,103056.42
2019-01-06T12:42:18.127Z,103056.78
2019-01-06T12:46:03.373Z,103054.72
2019-01-06T12:49:47.827Z,103055.87
2019-01-06T12:53:38.946Z,103054.62
2019-01-06T12:57:20.862Z,103057.89
2019-01-06T13:01:09.460Z,103059.22
2019-01-06T13:04:58.696Z,103061.66
2019-01-06T13:08:41.945Z,103061.14
2019-01-06T13:12:32.913Z,103059.16
2019-01-06T13:16:15.870Z,103067.13
2019-01-06T13:20:12.091Z,103066.28
2019-01-06T13:23:56.626Z,103065.02
2019-01-06T13:27:56.746Z,103066.42
2019-01-06T13:31:39.631Z,103065.13
2019-01-06T13:35:42.274Z,103060.62
2019-01-06T13:39:24.257Z,103065.14
2019-01-06T13:43:02.061Z,103060.45
2019-01-06T13:46:49.518Z,103067.20
2019-01-06T13:50:38.492Z,103066.71
2019-01-06T13:54:30.081Z,103070.50
2019-01-06T13:58:09.890Z,103071.49
2019-01-06T14:01:52.822Z,103079.02
2019-01-06T14:05:35.628Z,103073.93
2019-01-06T14:09:18.727Z,103075.89
2019-01-06T14:13:02.036Z,103080.64
2019-01-06T14:16:52.264Z,103086.63
2019-01-06T14:20:35.739Z,103081.57
2019-01-06T14:24:29.046Z,103090.52
2019-01-06T14:28:12.225Z,103094.34
2019-01-06T14:31:55.062Z,103100.93
2019-01-06T14:35:39.791Z,103103.59
2019-01-06T14:39:28.162Z,103109.66
2019-01-06T14:43:11.348Z,103104.05
2019-01-06T14:47:07.844Z,103097.37
2019-01-06T14:50:50.743Z,103103.53
2019-01-06T14:54:35.288Z,103104.33
2019-01-06T14:58:27.993Z,103106.19
2019-01-06T15:02:23.176Z,103108.92
2019-01-06T15:06:13.771Z,103112.01
2019-01-06T15:10:13.197Z,103106.70
2019-01-06T15:14:06.816Z,103113.64
2019-01-06T15:17:49.631Z,103118.90
2019-01-06T15:21:52.064Z,103121.92
2019-01-06T15:25:35.482Z,103112.97
2019-01-06T15:29:38.505Z,103114.11
2019-01-06T15:33:32.030Z,103119.95
2019-01-06T15:37:19.773Z,103119.44
2019-01-06T15:41:07.131Z,103116.51
2019-01-06T15:44:57.467Z,103116.58
2019-01-06T15:48:44.930Z,103122.17
2019-01-06T15:52:28.084Z,103119.68
2019-01-06T15:56:30.494Z,103123.17
2019-01-06T16:00:29.838Z,103122.48
2019-01-06T16:04:13.094Z,103129.09
2019-01-06T16:07:56.247Z,103120.88
2019-01-06T16:11:39.341Z,103123.91
2019-01-06T16:15:22.541Z,103124.14
2019-01-06T16:19:05.529Z,103126.87
2019-01-06T16:22:48.744Z,103121.87
2019-01-06T16:26:25.095Z,103125.22
2019-01-06T16:30:27.528Z,103126.59
2019-01-06T16:34:12.147Z,103122.95
2019-01-06T16:38:11.812Z,103125.69
2019-01-06T16:41:54.994Z,103131.69
2019-01-06T16:45:38.163Z,103138.55
2019-01-06T16:49:21.217Z,103139.44
2019-01-06T16:53:20.817Z,103140.71
2019-01-06T16:57:15.285Z,103133.36
2019-01-06T17:01:10.131Z,103137.67
2019-01-06T17:04:53.804Z,103135.60
2019-01-06T17:08:53.391Z,103139.61
2019-01-06T17:12:39.525Z,103141.59
2019-01-06T17:16:24.062Z,103148.63
2019-01-06T17:20:08.510Z,103149.52
2019-01-06T17:23:51.584Z,103151.45
2019-01-06T17:27:47.875Z,103147.25
2019-01-06T17:31:30.734Z,103146.08
2019-01-06T17:35:18.203Z,103153.97
2019-01-06T17:39:02.694Z,103145.94
2019-01-06T17:42:45.789Z,103148.47
2019-01-06T17:46:28.896Z,103149.09
2019-01-06T17:50:20.352Z,103139.56
2019-01-06T17:54:21.325Z,103150.42
2019-01-06T17:58:09.550Z,103149.80
2019-01-06T18:01:54.163Z,103152.86
2019-01-06T18:05:41.689Z,103156.66
2019-01-06T18:09:26.644Z,103166.33
2019-01-06T18:13:09.563Z,103168.61
2019-01-06T18:16:52.468Z,103171.56
2019-01-06T18:20:42.783Z,103177.14
2019-01-06T18:24:26.265Z,103181.66
2019-01-06T18:28:09.464Z,103177.47
2019-01-06T18:31:52.324Z,103184.09
2019-01-06T18:35:35.495Z,103178.67
2019-01-06T18:39:32.264Z,103183.86
2019-01-06T18:43:19.867Z,103178.45
2019-01-06T18:47:16.087Z,103188.39
2019-01-06T18:51:06.323Z,103184.69
2019-01-06T18:55:05.819Z,103185.80
2019-01-06T18:58:48.676Z,103178.81
2019-01-06T19:02:33.103Z,103191.69
2019-01-06T19:06:26.889Z,103187.97
2019-01-06T19:10:20.644Z,103191.69
2019-01-06T19:14:19.973Z,103187.40
2019-01-06T19:18:13.593Z,103180.56
2019-01-06T19:22:04.314Z,103190.45
2019-01-06T19:25:47.709Z,103191.52
2019-01-06T19:29:40.106Z,103188.69
2019-01-06T19:33:35.146Z,103193.89
2019-01-06T19:37:18.763Z,103196.70
2019-01-06T19:41:06.427Z,103194.78
2019-01-06T19:45:00.880Z,103199.95
2019-01-06T19:48:57.458Z,103192.87
2019-01-06T19:52:40.657Z,103192.92
2019-01-06T19:56:28.049Z,103185.77
2019-01-06T20:00:27.769Z,103185.52
2019-01-06T20:04:24.953Z,103185.36
2019-01-06T20:08:18.787Z,103181.09
2019-01-06T20:12:09.668Z,103189.36
2019-01-06T20:16:05.965Z,103186.89
2019-01-06T20:19:53.765Z,103190.14
2019-01-06T20:23:38.451Z,103183.67
2019-01-06T20:27:23.301Z,103189.25
2019-01-06T20:31:16.963Z,103193.68
2019-01-06T20:35:04.656Z,103191.91
2019-01-06T20:38:47.725Z,103200.90
2019-01-06T20:42:31.015Z,103199.61
2019-01-06T20:46:13.847Z,103209.64
2019-01-06T20:49:57.159Z,103200.12
2019-01-06T20:53:54.406Z,103204.14
2019-01-06T20:57:38.859Z,103205.08
2019-01-06T21:01:22.616Z,103207.36
2019-01-06T21:05:20.387Z,103204.97
2019-01-06T21:09:04.186Z,103200.52
2019-01-06T21:13:00.967Z,103201.59
2019-01-06T21:16:44.215Z,103212.27
2019-01-06T21:20:27.485Z,103204.17
2019-01-06T21:24:10.776Z,103219.03
2019-01-06T21:28:07.486Z,103216.95
2019-01-06T21:31:54.831Z,103219.08
2019-01-06T21:35:37.905Z,103226.14
2019-01-06T21:39:15.608Z,103226.95
2019-01-06T21:42:58.829Z,103224.48
2019-01-06T21:46:38.084Z,103226.16
2019-01-06T21:50:34.563Z,103224.37
2019-01-06T21:54:19.284Z,103228.34
2019-01-06T21:58:03.674Z,103222.90
2019-01-06T22:02:00.150Z,103225.66
2019-01-06T22:05:43.608Z,103227.50
2019-01-06T22:09:28.499Z,103228.36
2019-01-06T22:13:25.099Z,103228.52
2019-01-06T22:17:12.338Z,103218.38
2019-01-06T22:21:08.917Z,103217.33
2019-01-06T22:25:08.802Z,103205.56
2019-01-06T22:29:02.248Z,103206.58
2019-01-06T22:32:46.689Z,103206.25
2019-01-06T22:36:29.589Z,103204.88
2019-01-06T22:40:12.681Z,103205.96
2019-01-06T22:43:55.823Z,103203.92
2019-01-06T22:47:38.630Z,103198.60
2019-01-06T22:51:21.436Z,103204.45
2019-01-06T22:55:04.532Z,103197.59
2019-01-06T22:58:53.859Z,103201.41
2019-01-06T23:02:34.763Z,103190.09
2019-01-06T23:06:28.418Z,103196.02
2019-01-06T23:10:21.886Z,103197.98
2019-01-06T23:14:17.026Z,103197.36
2019-01-06T23:18:16.421Z,103197.69
2019-01-06T23:22:03.880Z,103199.70
2019-01-06T23:25:55.020Z,103198.73
2019-01-06T23:29:38.411Z,103205.64
2019-01-06T23:33:21.196Z,103200.27
2019-01-06T23:37:04.013Z,103210.08
2019-01-06T23:40:47.057Z,103204.28
2019-01-06T23:44:29.982Z,103208.56
2019-01-06T23:48:14.426Z,103206.82
2019-01-06T23:52:01.640Z,103206.08
2019-01-06T23:55:44.668Z,103207.51
2019-01-06T23:59:29.066Z,103205.12
